sensor_id;sensor_type;location;lat;lon;timestamp;P1;durP1;ratioP1;P2;durP2;ratioP2
27580;SDS011;63557;52.302;7.964;2023-05-20T00:04:33;10.17;;;4.40;;
27580;SDS011;63557;52.302;7.964;2023-05-20T00:09:33;8.80;;;5.00;;
27580;SDS011;63557;52.302;7.964;2023-05-20T00:14:34;5.37;;;4.17;;
27580;SDS011;63557;52.302;7.964;2023-05-20T00:19:34;9.38;;;4.60;;
27580;SDS011;63557;52.302;7.964;2023-05-20T00:24:35;9.85;;;4.18;;
27580;SDS011;63557;52.302;7.964;2023-05-20T00:29:35;10.53;;;4.23;;
27580;SDS011;63557;52.302;7.964;2023-05-20T00:34:35;9.67;;;4.00;;
27580;SDS011;63557;52.302;7.964;2023-05-20T00:39:36;8.98;;;4.13;;
27580;SDS011;63557;52.302;7.964;2023-05-20T00:44:36;8.13;;;3.93;;
27580;SDS011;63557;52.302;7.964;2023-05-20T00:49:36;5.03;;;3.77;;
27580;SDS011;63557;52.302;7.964;2023-05-20T00:54:37;11.52;;;4.78;;
27580;SDS011;63557;52.302;7.964;2023-05-20T00:59:38;9.02;;;4.22;;
27580;SDS011;63557;52.302;7.964;2023-05-20T01:04:38;6.65;;;4.07;;
27580;SDS011;63557;52.302;7.964;2023-05-20T01:09:39;11.25;;;4.38;;
27580;SDS011;63557;52.302;7.964;2023-05-20T01:14:42;7.90;;;3.97;;
27580;SDS011;63557;52.302;7.964;2023-05-20T01:19:46;6.88;;;3.80;;
27580;SDS011;63557;52.302;7.964;2023-05-20T01:24:47;6.53;;;4.28;;
27580;SDS011;63557;52.302;7.964;2023-05-20T01:29:48;9.65;;;4.07;;
27580;SDS011;63557;52.302;7.964;2023-05-20T01:34:53;7.53;;;4.73;;
27580;SDS011;63557;52.302;7.964;2023-05-20T01:39:54;8.82;;;4.50;;
27580;SDS011;63557;52.302;7.964;2023-05-20T01:44:56;8.55;;;4.00;;
27580;SDS011;63557;52.302;7.964;2023-05-20T01:49:58;7.63;;;4.82;;
27580;SDS011;63557;52.302;7.964;2023-05-20T01:54:58;6.72;;;3.88;;
27580;SDS011;63557;52.302;7.964;2023-05-20T01:59:58;7.00;;;4.60;;
27580;SDS011;63557;52.302;7.964;2023-05-20T02:04:59;10.98;;;4.22;;
27580;SDS011;63557;52.302;7.964;2023-05-20T02:09:59;8.98;;;3.97;;
27580;SDS011;63557;52.302;7.964;2023-05-20T02:15:02;9.27;;;4.60;;
27580;SDS011;63557;52.302;7.964;2023-05-20T02:20:02;10.15;;;4.93;;
27580;SDS011;63557;52.302;7.964;2023-05-20T02:30:08;11.07;;;4.95;;
27580;SDS011;63557;52.302;7.964;2023-05-20T02:35:09;7.50;;;4.20;;
27580;SDS011;63557;52.302;7.964;2023-05-20T02:40:10;7.20;;;4.68;;
27580;SDS011;63557;52.302;7.964;2023-05-20T02:45:12;11.38;;;3.95;;
27580;SDS011;63557;52.302;7.964;2023-05-20T02:50:12;11.50;;;4.20;;
27580;SDS011;63557;52.302;7.964;2023-05-20T02:55:13;4.80;;;4.15;;
27580;SDS011;63557;52.302;7.964;2023-05-20T03:00:13;8.32;;;4.47;;
27580;SDS011;63557;52.302;7.964;2023-05-20T03:05:15;6.90;;;4.07;;
27580;SDS011;63557;52.302;7.964;2023-05-20T03:10:15;7.13;;;4.40;;
27580;SDS011;63557;52.302;7.964;2023-05-20T03:15:17;8.38;;;4.28;;
27580;SDS011;63557;52.302;7.964;2023-05-20T03:20:18;5.45;;;3.95;;
27580;SDS011;63557;52.302;7.964;2023-05-20T03:25:20;14.75;;;4.22;;
27580;SDS011;63557;52.302;7.964;2023-05-20T03:30:21;6.40;;;3.42;;
27580;SDS011;63557;52.302;7.964;2023-05-20T03:35:22;8.40;;;4.18;;
27580;SDS011;63557;52.302;7.964;2023-05-20T03:40:23;7.65;;;3.80;;
27580;SDS011;63557;52.302;7.964;2023-05-20T03:45:24;7.10;;;3.92;;
27580;SDS011;63557;52.302;7.964;2023-05-20T03:50:39;8.23;;;3.50;;
27580;SDS011;63557;52.302;7.964;2023-05-20T03:55:40;7.80;;;4.05;;
27580;SDS011;63557;52.302;7.964;2023-05-20T04:00:42;5.25;;;3.50;;
27580;SDS011;63557;52.302;7.964;2023-05-20T04:05:42;4.80;;;3.67;;
27580;SDS011;63557;52.302;7.964;2023-05-20T04:10:50;4.18;;;3.13;;
27580;SDS011;63557;52.302;7.964;2023-05-20T04:15:51;5.25;;;3.70;;
27580;SDS011;63557;52.302;7.964;2023-05-20T04:20:55;10.70;;;3.13;;
27580;SDS011;63557;52.302;7.964;2023-05-20T04:25:56;7.07;;;4.00;;
27580;SDS011;63557;52.302;7.964;2023-05-20T04:31:03;7.03;;;3.75;;
27580;SDS011;63557;52.302;7.964;2023-05-20T04:36:08;4.13;;;3.53;;
27580;SDS011;63557;52.302;7.964;2023-05-20T04:41:09;10.63;;;3.80;;
27580;SDS011;63557;52.302;7.964;2023-05-20T04:46:10;3.85;;;3.22;;
27580;SDS011;63557;52.302;7.964;2023-05-20T04:51:10;5.03;;;3.25;;
27580;SDS011;63557;52.302;7.964;2023-05-20T04:56:11;5.13;;;3.23;;
27580;SDS011;63557;52.302;7.964;2023-05-20T05:01:11;4.97;;;3.38;;
27580;SDS011;63557;52.302;7.964;2023-05-20T05:06:11;4.97;;;3.58;;
27580;SDS011;63557;52.302;7.964;2023-05-20T05:11:13;7.15;;;3.30;;
27580;SDS011;63557;52.302;7.964;2023-05-20T05:16:13;5.18;;;3.65;;
27580;SDS011;63557;52.302;7.964;2023-05-20T05:21:14;5.95;;;3.10;;
27580;SDS011;63557;52.302;7.964;2023-05-20T05:26:15;8.57;;;4.00;;
27580;SDS011;63557;52.302;7.964;2023-05-20T05:31:17;4.15;;;2.90;;
27580;SDS011;63557;52.302;7.964;2023-05-20T05:36:18;4.93;;;3.43;;
27580;SDS011;63557;52.302;7.964;2023-05-20T05:41:18;6.65;;;3.63;;
27580;SDS011;63557;52.302;7.964;2023-05-20T05:46:19;5.40;;;3.65;;
27580;SDS011;63557;52.302;7.964;2023-05-20T05:51:19;8.32;;;3.13;;
27580;SDS011;63557;52.302;7.964;2023-05-20T05:56:22;5.72;;;3.40;;
27580;SDS011;63557;52.302;7.964;2023-05-20T06:01:23;7.72;;;3.78;;
27580;SDS011;63557;52.302;7.964;2023-05-20T06:06:23;5.38;;;4.03;;
27580;SDS011;63557;52.302;7.964;2023-05-20T06:11:24;6.43;;;4.03;;
27580;SDS011;63557;52.302;7.964;2023-05-20T06:16:25;8.77;;;3.72;;
27580;SDS011;63557;52.302;7.964;2023-05-20T06:21:26;4.90;;;3.30;;
27580;SDS011;63557;52.302;7.964;2023-05-20T06:26:26;4.20;;;3.80;;
27580;SDS011;63557;52.302;7.964;2023-05-20T06:31:28;5.50;;;4.00;;
27580;SDS011;63557;52.302;7.964;2023-05-20T06:36:29;7.68;;;4.32;;
27580;SDS011;63557;52.302;7.964;2023-05-20T06:41:30;5.13;;;3.67;;
27580;SDS011;63557;52.302;7.964;2023-05-20T06:46:30;5.70;;;4.30;;
27580;SDS011;63557;52.302;7.964;2023-05-20T06:51:38;11.75;;;3.97;;
27580;SDS011;63557;52.302;7.964;2023-05-20T06:56:38;8.85;;;5.20;;
27580;SDS011;63557;52.302;7.964;2023-05-20T07:01:39;7.05;;;4.30;;
27580;SDS011;63557;52.302;7.964;2023-05-20T07:06:40;5.50;;;4.15;;
27580;SDS011;63557;52.302;7.964;2023-05-20T07:11:41;7.03;;;4.03;;
27580;SDS011;63557;52.302;7.964;2023-05-20T07:16:41;7.13;;;3.72;;
27580;SDS011;63557;52.302;7.964;2023-05-20T07:21:42;12.75;;;4.05;;
27580;SDS011;63557;52.302;7.964;2023-05-20T07:26:43;4.90;;;3.95;;
27580;SDS011;63557;52.302;7.964;2023-05-20T07:31:43;4.72;;;3.97;;
27580;SDS011;63557;52.302;7.964;2023-05-20T07:36:44;4.13;;;3.72;;
27580;SDS011;63557;52.302;7.964;2023-05-20T07:41:44;10.95;;;3.75;;
27580;SDS011;63557;52.302;7.964;2023-05-20T07:46:46;11.82;;;3.78;;
27580;SDS011;63557;52.302;7.964;2023-05-20T07:51:46;11.10;;;4.05;;
27580;SDS011;63557;52.302;7.964;2023-05-20T07:56:48;4.85;;;2.95;;
27580;SDS011;63557;52.302;7.964;2023-05-20T08:01:49;4.82;;;3.38;;
27580;SDS011;63557;52.302;7.964;2023-05-20T08:06:52;6.72;;;3.28;;
27580;SDS011;63557;52.302;7.964;2023-05-20T08:11:59;7.07;;;3.33;;
27580;SDS011;63557;52.302;7.964;2023-05-20T08:17:00;8.45;;;3.40;;
27580;SDS011;63557;52.302;7.964;2023-05-20T08:22:00;9.40;;;3.40;;
27580;SDS011;63557;52.302;7.964;2023-05-20T08:27:01;3.60;;;3.30;;
27580;SDS011;63557;52.302;7.964;2023-05-20T08:32:02;5.47;;;3.45;;
27580;SDS011;63557;52.302;7.964;2023-05-20T08:37:02;5.88;;;3.85;;
27580;SDS011;63557;52.302;7.964;2023-05-20T08:42:03;6.22;;;3.20;;
27580;SDS011;63557;52.302;7.964;2023-05-20T08:47:06;6.30;;;4.13;;
27580;SDS011;63557;52.302;7.964;2023-05-20T08:52:08;4.13;;;2.97;;
27580;SDS011;63557;52.302;7.964;2023-05-20T08:57:11;13.82;;;4.38;;
27580;SDS011;63557;52.302;7.964;2023-05-20T09:02:13;10.40;;;3.78;;
27580;SDS011;63557;52.302;7.964;2023-05-20T09:07:13;7.88;;;3.60;;
27580;SDS011;63557;52.302;7.964;2023-05-20T09:12:13;11.47;;;3.83;;
27580;SDS011;63557;52.302;7.964;2023-05-20T09:17:15;8.32;;;3.30;;
27580;SDS011;63557;52.302;7.964;2023-05-20T09:22:24;10.10;;;3.50;;
27580;SDS011;63557;52.302;7.964;2023-05-20T09:27:24;8.63;;;3.45;;
27580;SDS011;63557;52.302;7.964;2023-05-20T09:32:25;9.93;;;3.72;;
27580;SDS011;63557;52.302;7.964;2023-05-20T09:37:28;8.63;;;3.33;;
27580;SDS011;63557;52.302;7.964;2023-05-20T09:42:30;9.07;;;3.25;;
27580;SDS011;63557;52.302;7.964;2023-05-20T09:47:38;13.30;;;3.22;;
27580;SDS011;63557;52.302;7.964;2023-05-20T09:52:39;9.88;;;2.88;;
27580;SDS011;63557;52.302;7.964;2023-05-20T09:57:40;5.47;;;2.53;;
27580;SDS011;63557;52.302;7.964;2023-05-20T10:02:42;6.05;;;2.53;;
27580;SDS011;63557;52.302;7.964;2023-05-20T10:08:14;19.70;;;4.15;;
27580;SDS011;63557;52.302;7.964;2023-05-20T10:23:21;9.18;;;2.92;;
27580;SDS011;63557;52.302;7.964;2023-05-20T10:28:30;7.32;;;2.90;;
27580;SDS011;63557;52.302;7.964;2023-05-20T10:33:39;7.18;;;2.80;;
27580;SDS011;63557;52.302;7.964;2023-05-20T10:38:48;6.63;;;2.40;;
27580;SDS011;63557;52.302;7.964;2023-05-20T10:43:58;14.35;;;2.85;;
27580;SDS011;63557;52.302;7.964;2023-05-20T10:48:58;9.95;;;3.25;;
27580;SDS011;63557;52.302;7.964;2023-05-20T10:54:00;8.82;;;2.60;;
27580;SDS011;63557;52.302;7.964;2023-05-20T10:59:00;5.87;;;2.20;;
27580;SDS011;63557;52.302;7.964;2023-05-20T11:04:01;8.63;;;3.15;;
27580;SDS011;63557;52.302;7.964;2023-05-20T11:09:03;4.22;;;2.05;;
27580;SDS011;63557;52.302;7.964;2023-05-20T11:14:08;10.75;;;2.40;;
27580;SDS011;63557;52.302;7.964;2023-05-20T11:19:15;6.95;;;2.83;;
27580;SDS011;63557;52.302;7.964;2023-05-20T11:24:22;2.53;;;2.30;;
27580;SDS011;63557;52.302;7.964;2023-05-20T11:29:25;25.63;;;3.83;;
27580;SDS011;63557;52.302;7.964;2023-05-20T11:34:25;11.23;;;2.70;;
27580;SDS011;63557;52.302;7.964;2023-05-20T11:39:28;53.00;;;5.30;;
27580;SDS011;63557;52.302;7.964;2023-05-20T11:44:29;11.20;;;2.65;;
27580;SDS011;63557;52.302;7.964;2023-05-20T11:49:29;32.17;;;4.97;;
27580;SDS011;63557;52.302;7.964;2023-05-20T11:54:30;11.38;;;2.70;;
27580;SDS011;63557;52.302;7.964;2023-05-20T11:59:34;4.63;;;2.22;;
27580;SDS011;63557;52.302;7.964;2023-05-20T12:04:35;7.68;;;3.17;;
27580;SDS011;63557;52.302;7.964;2023-05-20T12:09:35;6.80;;;2.73;;
27580;SDS011;63557;52.302;7.964;2023-05-20T12:14:36;10.00;;;2.70;;
27580;SDS011;63557;52.302;7.964;2023-05-20T12:19:36;4.33;;;2.37;;
27580;SDS011;63557;52.302;7.964;2023-05-20T12:24:36;4.13;;;2.47;;
27580;SDS011;63557;52.302;7.964;2023-05-20T12:29:37;19.37;;;2.83;;
27580;SDS011;63557;52.302;7.964;2023-05-20T12:34:37;9.00;;;2.73;;
27580;SDS011;63557;52.302;7.964;2023-05-20T12:39:38;4.17;;;2.30;;
27580;SDS011;63557;52.302;7.964;2023-05-20T12:44:38;3.80;;;2.90;;
27580;SDS011;63557;52.302;7.964;2023-05-20T12:49:38;8.40;;;2.93;;
27580;SDS011;63557;52.302;7.964;2023-05-20T12:54:39;8.90;;;2.90;;
27580;SDS011;63557;52.302;7.964;2023-05-20T12:59:39;3.75;;;2.63;;
27580;SDS011;63557;52.302;7.964;2023-05-20T13:04:39;6.47;;;2.53;;
27580;SDS011;63557;52.302;7.964;2023-05-20T13:09:40;3.50;;;2.47;;
27580;SDS011;63557;52.302;7.964;2023-05-20T13:14:40;5.67;;;2.43;;
27580;SDS011;63557;52.302;7.964;2023-05-20T13:19:41;6.00;;;2.60;;
27580;SDS011;63557;52.302;7.964;2023-05-20T13:24:41;3.93;;;2.87;;
27580;SDS011;63557;52.302;7.964;2023-05-20T13:29:42;4.10;;;2.97;;
27580;SDS011;63557;52.302;7.964;2023-05-20T13:34:42;10.05;;;3.33;;
27580;SDS011;63557;52.302;7.964;2023-05-20T13:39:43;8.13;;;2.83;;
27580;SDS011;63557;52.302;7.964;2023-05-20T13:44:43;4.33;;;2.43;;
27580;SDS011;63557;52.302;7.964;2023-05-20T13:49:43;8.93;;;2.97;;
27580;SDS011;63557;52.302;7.964;2023-05-20T13:54:44;4.53;;;2.70;;
27580;SDS011;63557;52.302;7.964;2023-05-20T13:59:46;3.58;;;3.28;;
27580;SDS011;63557;52.302;7.964;2023-05-20T14:04:46;4.13;;;3.30;;
27580;SDS011;63557;52.302;7.964;2023-05-20T14:09:47;4.77;;;3.03;;
27580;SDS011;63557;52.302;7.964;2023-05-20T14:14:47;5.13;;;2.93;;
27580;SDS011;63557;52.302;7.964;2023-05-20T14:19:47;3.00;;;2.77;;
27580;SDS011;63557;52.302;7.964;2023-05-20T14:24:48;6.00;;;2.80;;
27580;SDS011;63557;52.302;7.964;2023-05-20T14:29:48;3.40;;;2.87;;
27580;SDS011;63557;52.302;7.964;2023-05-20T14:34:49;3.40;;;2.83;;
27580;SDS011;63557;52.302;7.964;2023-05-20T14:39:50;5.53;;;3.20;;
27580;SDS011;63557;52.302;7.964;2023-05-20T14:44:50;6.27;;;3.20;;
27580;SDS011;63557;52.302;7.964;2023-05-20T14:49:51;5.27;;;3.27;;
27580;SDS011;63557;52.302;7.964;2023-05-20T14:54:51;3.73;;;3.00;;
27580;SDS011;63557;52.302;7.964;2023-05-20T14:59:51;4.93;;;3.37;;
27580;SDS011;63557;52.302;7.964;2023-05-20T15:04:52;6.10;;;3.22;;
27580;SDS011;63557;52.302;7.964;2023-05-20T15:09:52;17.80;;;3.30;;
27580;SDS011;63557;52.302;7.964;2023-05-20T15:14:52;4.73;;;3.20;;
27580;SDS011;63557;52.302;7.964;2023-05-20T15:19:53;3.23;;;2.93;;
27580;SDS011;63557;52.302;7.964;2023-05-20T15:24:53;7.80;;;2.50;;
27580;SDS011;63557;52.302;7.964;2023-05-20T15:29:54;9.40;;;3.43;;
27580;SDS011;63557;52.302;7.964;2023-05-20T15:34:54;8.35;;;3.38;;
27580;SDS011;63557;52.302;7.964;2023-05-20T15:39:54;3.67;;;3.15;;
27580;SDS011;63557;52.302;7.964;2023-05-20T15:44:55;5.50;;;3.10;;
27580;SDS011;63557;52.302;7.964;2023-05-20T15:49:56;5.10;;;3.20;;
27580;SDS011;63557;52.302;7.964;2023-05-20T15:54:56;3.75;;;3.42;;
27580;SDS011;63557;52.302;7.964;2023-05-20T15:59:57;7.40;;;3.45;;
27580;SDS011;63557;52.302;7.964;2023-05-20T16:04:57;3.65;;;3.35;;
27580;SDS011;63557;52.302;7.964;2023-05-20T16:09:58;7.57;;;4.17;;
27580;SDS011;63557;52.302;7.964;2023-05-20T16:14:58;4.73;;;3.80;;
27580;SDS011;63557;52.302;7.964;2023-05-20T16:19:59;5.80;;;4.13;;
27580;SDS011;63557;52.302;7.964;2023-05-20T16:24:59;6.17;;;3.73;;
27580;SDS011;63557;52.302;7.964;2023-05-20T16:30:00;6.55;;;3.92;;
27580;SDS011;63557;52.302;7.964;2023-05-20T16:35:00;7.18;;;3.88;;
27580;SDS011;63557;52.302;7.964;2023-05-20T16:40:01;6.23;;;4.87;;
27580;SDS011;63557;52.302;7.964;2023-05-20T16:45:01;5.53;;;4.13;;
27580;SDS011;63557;52.302;7.964;2023-05-20T16:50:02;6.72;;;4.57;;
27580;SDS011;63557;52.302;7.964;2023-05-20T16:55:03;5.63;;;4.70;;
27580;SDS011;63557;52.302;7.964;2023-05-20T17:00:04;6.95;;;4.40;;
27580;SDS011;63557;52.302;7.964;2023-05-20T17:05:07;6.65;;;5.40;;
27580;SDS011;63557;52.302;7.964;2023-05-20T17:10:07;6.70;;;4.97;;
27580;SDS011;63557;52.302;7.964;2023-05-20T17:15:08;7.65;;;5.28;;
27580;SDS011;63557;52.302;7.964;2023-05-20T17:20:08;7.00;;;6.30;;
27580;SDS011;63557;52.302;7.964;2023-05-20T17:25:09;8.68;;;5.90;;
27580;SDS011;63557;52.302;7.964;2023-05-20T17:30:10;8.48;;;6.45;;
27580;SDS011;63557;52.302;7.964;2023-05-20T17:35:10;7.60;;;6.47;;
27580;SDS011;63557;52.302;7.964;2023-05-20T17:40:11;9.03;;;7.37;;
27580;SDS011;63557;52.302;7.964;2023-05-20T17:45:12;19.27;;;7.60;;
27580;SDS011;63557;52.302;7.964;2023-05-20T17:50:13;8.15;;;6.82;;
27580;SDS011;63557;52.302;7.964;2023-05-20T17:55:14;9.23;;;6.28;;
27580;SDS011;63557;52.302;7.964;2023-05-20T18:00:17;10.30;;;6.90;;
27580;SDS011;63557;52.302;7.964;2023-05-20T18:05:20;9.13;;;6.65;;
27580;SDS011;63557;52.302;7.964;2023-05-20T18:10:20;11.53;;;7.17;;
27580;SDS011;63557;52.302;7.964;2023-05-20T18:15:21;8.80;;;6.03;;
27580;SDS011;63557;52.302;7.964;2023-05-20T18:20:21;8.63;;;6.97;;
27580;SDS011;63557;52.302;7.964;2023-05-20T18:25:21;7.10;;;5.82;;
27580;SDS011;63557;52.302;7.964;2023-05-20T18:30:22;10.67;;;6.07;;
27580;SDS011;63557;52.302;7.964;2023-05-20T18:35:22;7.35;;;5.47;;
27580;SDS011;63557;52.302;7.964;2023-05-20T18:40:23;7.90;;;6.03;;
27580;SDS011;63557;52.302;7.964;2023-05-20T18:45:23;8.43;;;6.10;;
27580;SDS011;63557;52.302;7.964;2023-05-20T18:50:24;8.43;;;5.88;;
27580;SDS011;63557;52.302;7.964;2023-05-20T18:55:25;8.73;;;6.28;;
27580;SDS011;63557;52.302;7.964;2023-05-20T19:00:25;6.68;;;5.95;;
27580;SDS011;63557;52.302;7.964;2023-05-20T19:05:26;6.82;;;5.85;;
27580;SDS011;63557;52.302;7.964;2023-05-20T19:10:26;6.97;;;6.25;;
27580;SDS011;63557;52.302;7.964;2023-05-20T19:15:27;8.93;;;5.90;;
27580;SDS011;63557;52.302;7.964;2023-05-20T19:20:29;7.80;;;6.30;;
27580;SDS011;63557;52.302;7.964;2023-05-20T19:25:29;9.18;;;5.95;;
27580;SDS011;63557;52.302;7.964;2023-05-20T19:30:30;6.90;;;6.00;;
27580;SDS011;63557;52.302;7.964;2023-05-20T19:35:31;7.00;;;6.20;;
27580;SDS011;63557;52.302;7.964;2023-05-20T19:40:32;12.02;;;6.43;;
27580;SDS011;63557;52.302;7.964;2023-05-20T19:45:33;8.07;;;6.82;;
27580;SDS011;63557;52.302;7.964;2023-05-20T19:50:35;9.68;;;7.60;;
27580;SDS011;63557;52.302;7.964;2023-05-20T19:55:36;7.93;;;6.50;;
27580;SDS011;63557;52.302;7.964;2023-05-20T20:00:37;9.27;;;6.72;;
27580;SDS011;63557;52.302;7.964;2023-05-20T20:05:37;10.07;;;6.93;;
27580;SDS011;63557;52.302;7.964;2023-05-20T20:10:38;8.37;;;6.40;;
27580;SDS011;63557;52.302;7.964;2023-05-20T20:15:38;10.50;;;6.37;;
27580;SDS011;63557;52.302;7.964;2023-05-20T20:20:39;7.95;;;7.00;;
27580;SDS011;63557;52.302;7.964;2023-05-20T20:25:39;9.20;;;7.22;;
27580;SDS011;63557;52.302;7.964;2023-05-20T20:30:40;8.27;;;6.97;;
27580;SDS011;63557;52.302;7.964;2023-05-20T20:35:40;7.18;;;6.47;;
27580;SDS011;63557;52.302;7.964;2023-05-20T20:40:41;7.30;;;6.57;;
27580;SDS011;63557;52.302;7.964;2023-05-20T20:45:41;11.83;;;6.50;;
27580;SDS011;63557;52.302;7.964;2023-05-20T20:50:42;8.93;;;6.80;;
27580;SDS011;63557;52.302;7.964;2023-05-20T20:55:43;7.13;;;6.43;;
27580;SDS011;63557;52.302;7.964;2023-05-20T21:00:45;8.30;;;6.32;;
27580;SDS011;63557;52.302;7.964;2023-05-20T21:05:47;10.30;;;7.07;;
27580;SDS011;63557;52.302;7.964;2023-05-20T21:10:48;8.88;;;6.47;;
27580;SDS011;63557;52.302;7.964;2023-05-20T21:15:48;9.27;;;6.38;;
27580;SDS011;63557;52.302;7.964;2023-05-20T21:20:52;8.67;;;6.87;;
27580;SDS011;63557;52.302;7.964;2023-05-20T21:25:53;9.48;;;7.10;;
27580;SDS011;63557;52.302;7.964;2023-05-20T21:30:53;7.60;;;6.80;;
27580;SDS011;63557;52.302;7.964;2023-05-20T21:35:54;7.83;;;7.03;;
27580;SDS011;63557;52.302;7.964;2023-05-20T21:40:54;13.73;;;7.35;;
27580;SDS011;63557;52.302;7.964;2023-05-20T21:45:56;12.10;;;7.43;;
27580;SDS011;63557;52.302;7.964;2023-05-20T21:50:56;9.68;;;7.00;;
27580;SDS011;63557;52.302;7.964;2023-05-20T21:55:57;10.57;;;6.50;;
27580;SDS011;63557;52.302;7.964;2023-05-20T22:00:57;7.90;;;7.10;;
27580;SDS011;63557;52.302;7.964;2023-05-20T22:05:58;12.80;;;9.68;;
27580;SDS011;63557;52.302;7.964;2023-05-20T22:10:58;10.57;;;8.30;;
27580;SDS011;63557;52.302;7.964;2023-05-20T22:16:04;9.30;;;6.47;;
27580;SDS011;63557;52.302;7.964;2023-05-20T22:21:04;9.90;;;7.00;;
27580;SDS011;63557;52.302;7.964;2023-05-20T22:26:05;9.05;;;6.47;;
27580;SDS011;63557;52.302;7.964;2023-05-20T22:31:07;8.45;;;6.43;;
27580;SDS011;63557;52.302;7.964;2023-05-20T22:36:08;7.77;;;6.43;;
27580;SDS011;63557;52.302;7.964;2023-05-20T22:41:08;8.77;;;6.78;;
27580;SDS011;63557;52.302;7.964;2023-05-20T22:46:09;7.20;;;6.18;;
27580;SDS011;63557;52.302;7.964;2023-05-20T22:51:09;7.68;;;6.40;;
27580;SDS011;63557;52.302;7.964;2023-05-20T22:56:10;8.02;;;6.30;;
27580;SDS011;63557;52.302;7.964;2023-05-20T23:01:10;7.80;;;5.90;;
27580;SDS011;63557;52.302;7.964;2023-05-20T23:06:11;13.20;;;7.38;;
27580;SDS011;63557;52.302;7.964;2023-05-20T23:11:11;7.47;;;6.38;;
27580;SDS011;63557;52.302;7.964;2023-05-20T23:16:12;10.13;;;6.17;;
27580;SDS011;63557;52.302;7.964;2023-05-20T23:21:13;8.65;;;6.72;;
27580;SDS011;63557;52.302;7.964;2023-05-20T23:26:13;9.37;;;6.57;;
27580;SDS011;63557;52.302;7.964;2023-05-20T23:31:13;9.10;;;7.47;;
27580;SDS011;63557;52.302;7.964;2023-05-20T23:36:14;8.85;;;6.70;;
27580;SDS011;63557;52.302;7.964;2023-05-20T23:41:16;8.70;;;6.63;;
27580;SDS011;63557;52.302;7.964;2023-05-20T23:46:16;10.00;;;7.47;;
27580;SDS011;63557;52.302;7.964;2023-05-20T23:51:18;10.18;;;7.30;;
27580;SDS011;63557;52.302;7.964;2023-05-20T23:56:18;11.53;;;7.53;;
